Time;durP1;ratioP1;P1;durP2;ratioP2;P2;SDS_P1;SDS_P2;PMS_P1;PMS_P2;Temp;Humidity;BMP_temperature;BMP_pressure;BME280_temperature;BME280_humidity;BME280_pressure;Samples;Min_cycle;Max_cycle;Signal;HPM_P1;HPM_P2
2022/09/17 00:00:49;;;;;;;16.65;2.72;;;;;;;12.56;82.31;101146.97;6237408;23;20291;-77
2022/09/17 00:03:16;;;;;;;19.05;3.28;;;;;;;12.61;82.20;101143.00;6235922;22;20007;-78
2022/09/17 00:05:42;;;;;;;20.42;2.90;;;;;;;12.31;84.28;101141.09;6232154;23;20012;-77
2022/09/17 00:08:11;;;;;;;9.30;2.90;;;;;;;12.53;82.21;101144.94;6233609;23;20008;-77
2022/09/17 00:10:38;;;;;;;15.52;2.25;;;;;;;12.35;82.90;101147.56;6235263;22;20044;-77
2022/09/17 00:13:04;;;;;;;14.88;2.35;;;;;;;12.23;83.55;101149.78;6234489;22;20373;-76
2022/09/17 00:15:29;;;;;;;14.23;3.25;;;;;;;12.36;82.69;101159.59;6233168;22;20012;-77
2022/09/17 00:17:56;;;;;;;16.48;3.42;;;;;;;12.24;84.07;101165.44;6231624;23;20008;-77
2022/09/17 00:20:23;;;;;;;15.02;3.03;;;;;;;12.17;82.84;101168.97;6234810;22;20027;-76
2022/09/17 00:22:48;;;;;;;14.63;4.03;;;;;;;12.20;83.34;101160.59;6231759;23;20019;-77
2022/09/17 00:25:15;;;;;;;11.73;2.22;;;;;;;12.25;84.06;101165.09;6234353;23;20340;-77
2022/09/17 00:27:40;;;;;;;12.60;2.20;;;;;;;12.41;83.76;101148.00;6237274;22;20054;-76
2022/09/17 00:30:06;;;;;;;10.27;1.80;;;;;;;12.17;84.81;101163.38;6233468;23;20407;-77
2022/09/17 00:32:32;;;;;;;12.63;3.15;;;;;;;12.23;84.20;101156.22;6235252;23;20086;-76
2022/09/17 00:34:57;;;;;;;7.88;2.08;;;;;;;12.16;83.70;101167.34;6238245;23;20032;-76
2022/09/17 00:37:23;;;;;;;11.68;1.85;;;;;;;12.32;83.36;101165.16;6241076;22;20012;-76
2022/09/17 00:39:48;;;;;;;14.05;2.10;;;;;;;12.33;83.26;101166.78;6237638;22;20437;-76
2022/09/17 00:42:15;;;;;;;7.28;1.73;;;;;;;12.36;82.74;101160.38;6235320;23;20514;-77
2022/09/17 00:44:51;;;;;;;8.70;2.03;;;;;;;12.15;83.59;101154.53;6240300;22;20016;-76
2022/09/17 00:47:38;;;;;;;16.02;2.50;;;;;;;11.95;85.28;101157.50;6237524;23;20302;-76
2022/09/17 00:50:06;;;;;;;10.20;2.00;;;;;;;12.41;82.76;101164.84;6236515;22;20079;-76
2022/09/17 00:52:36;;;;;;;8.93;2.17;;;;;;;12.58;82.25;101160.63;6241181;22;20140;-77
2022/09/17 00:55:16;;;;;;;10.30;2.13;;;;;;;12.40;82.69;101161.25;6213073;23;20008;-77
2022/09/17 00:57:44;;;;;;;7.22;1.38;;;;;;;12.41;82.66;101156.44;6240765;23;20078;-76
2022/09/17 01:00:13;;;;;;;9.93;2.15;;;;;;;11.98;83.48;101156.72;6237150;23;20023;-76
2022/09/17 01:02:39;;;;;;;13.32;2.13;;;;;;;12.29;82.87;101151.06;6239788;23;20008;-76
2022/09/17 01:05:06;;;;;;;11.27;2.38;;;;;;;12.39;81.96;101153.19;6240395;23;20019;-76
2022/09/17 01:07:50;;;;;;;7.07;1.83;;;;;;;12.40;81.93;101161.25;6239965;23;20052;-76
2022/09/17 01:10:32;;;;;;;10.73;2.45;;;;;;;12.42;81.64;101163.66;6208477;23;20042;-76
2022/09/17 01:13:23;;;;;;;7.78;2.88;;;;;;;12.48;80.99;101156.53;6237240;23;20042;-76
2022/09/17 01:15:48;;;;;;;16.77;3.70;;;;;;;12.59;80.59;101162.25;6214103;23;20103;-76
2022/09/17 01:18:28;;;;;;;10.50;1.90;;;;;;;12.60;80.48;101175.09;6238701;23;20036;-76
2022/09/17 01:21:02;;;;;;;12.05;2.78;;;;;;;12.55;80.70;101167.03;6211789;23;20421;-76
2022/09/17 01:23:40;;;;;;;11.73;2.17;;;;;;;12.32;81.54;101172.78;6237944;23;20503;-76
2022/09/17 01:26:35;;;;;;;13.70;2.45;;;;;;;12.12;82.29;101172.13;6237732;23;20015;-77
2022/09/17 01:29:19;;;;;;;15.75;3.08;;;;;;;12.11;82.00;101167.69;6210173;23;20257;-76
2022/09/17 01:31:58;;;;;;;9.90;2.20;;;;;;;12.19;81.30;101172.22;6236607;23;20436;-76
2022/09/17 01:34:37;;;;;;;10.85;2.35;;;;;;;12.24;80.96;101171.88;6238641;23;20376;-76
2022/09/17 01:37:10;;;;;;;11.35;2.47;;;;;;;12.03;81.09;101157.56;6210035;23;20019;-76
2022/09/17 01:40:09;;;;;;;15.48;2.60;;;;;;;11.47;83.87;101165.59;6207867;23;20004;-76
2022/09/17 01:42:49;;;;;;;14.82;2.80;;;;;;;11.47;83.49;101179.59;6236290;23;20042;-76
2022/09/17 01:45:22;;;;;;;9.05;2.33;;;;;;;11.95;82.61;101179.94;6238165;23;20040;-76
2022/09/17 01:47:58;;;;;;;;;;;;;;;12.10;81.26;101174.50;6237790;23;20019;-76
2022/09/17 01:50:29;;;;;;;12.25;2.35;;;;;;;12.03;81.26;101171.59;6214333;23;19954;-77
2022/09/17 01:52:56;;;;;;;12.75;1.77;;;;;;;12.00;80.84;101181.59;6240589;23;20095;-76
2022/09/17 01:55:25;;;;;;;10.45;2.58;;;;;;;11.87;80.75;101189.41;6238023;23;20083;-76
2022/09/17 01:58:15;;;;;;;9.63;2.28;;;;;;;11.97;80.08;101182.34;6234787;23;20521;-77
2022/09/17 02:00:46;;;;;;;7.40;2.45;;;;;;;12.06;79.20;101191.28;6238214;23;20012;-77
2022/09/17 02:03:29;;;;;;;14.30;2.83;;;;;;;12.18;79.35;101187.41;6209606;23;20048;-77
2022/09/17 02:06:26;;;;;;;9.77;2.00;;;;;;;12.20;79.39;101182.25;6235192;23;20483;-77
2022/09/17 02:09:21;;;;;;;3.25;1.27;;;;;;;12.08;79.92;101194.53;6237495;23;20007;-77
2022/09/17 02:11:51;;;;;;;9.77;1.90;;;;;;;11.83;81.16;101191.34;6238269;23;20015;-76
2022/09/17 02:14:27;;;;;;;13.65;2.63;;;;;;;11.69;81.15;101188.34;6207566;23;20014;-76
2022/09/17 02:16:59;;;;;;;18.98;2.75;;;;;;;12.03;80.44;101199.66;6209766;23;20780;-76
2022/09/17 02:19:28;;;;;;;7.43;1.88;;;;;;;11.99;80.51;101194.81;6234182;23;20031;-76
2022/09/17 02:21:59;;;;;;;10.10;1.88;;;;;;;12.07;79.93;101203.31;6233548;23;20046;-77
2022/09/17 02:24:32;;;;;;;8.35;1.98;;;;;;;11.62;81.80;101197.44;6236183;23;20032;-76
2022/09/17 02:27:04;;;;;;;12.20;1.98;;;;;;;11.95;80.58;101202.38;6237932;23;20016;-76
2022/09/17 02:29:38;;;;;;;16.88;2.30;;;;;;;11.69;81.54;101211.56;6233640;23;20022;-77
2022/09/17 02:32:04;;;;;;;13.18;3.33;;;;;;;11.78;82.17;101208.50;6238104;23;20041;-76
2022/09/17 02:34:30;;;;;;;12.25;2.03;;;;;;;11.77;82.24;101206.88;6210662;23;20074;-76
2022/09/17 02:37:00;;;;;;;7.68;1.63;;;;;;;11.60;83.09;101202.63;6238147;23;20325;-76
2022/09/17 02:39:26;;;;;;;14.75;2.50;;;;;;;11.73;83.18;101195.59;6236583;23;20016;-77
2022/09/17 02:42:03;;;;;;;7.90;1.52;;;;;;;11.80;83.17;101197.69;6237677;23;20020;-76
2022/09/17 02:44:58;;;;;;;6.80;1.70;;;;;;;11.84;83.10;101194.97;6236968;23;20086;-76
2022/09/17 02:47:26;;;;;;;7.57;1.85;;;;;;;11.57;84.85;101184.56;6237974;23;20016;-77
2022/09/17 02:50:13;;;;;;;11.50;1.88;;;;;;;11.53;85.60;101178.09;6237228;23;20435;-76
2022/09/17 02:52:41;;;;;;;5.55;2.10;;;;;;;11.87;82.90;101186.59;6237734;23;20436;-77
2022/09/17 02:55:23;;;;;;;7.72;1.38;;;;;;;12.05;81.72;101189.66;6238313;23;20087;-76
2022/09/17 02:57:59;;;;;;;6.22;1.48;;;;;;;12.03;81.59;101197.66;6235498;23;20008;-77
2022/09/17 03:00:27;;;;;;;5.38;1.35;;;;;;;11.86;81.80;101190.56;6236664;23;20057;-76
2022/09/17 03:03:04;;;;;;;8.82;1.88;;;;;;;11.91;81.93;101197.88;6237785;23;20016;-77
2022/09/17 03:05:31;;;;;;;8.13;1.13;;;;;;;11.85;81.88;101197.41;6238157;23;20015;-76
2022/09/17 03:07:58;;;;;;;8.18;1.52;;;;;;;11.90;80.75;101199.88;6235754;23;20036;-76
2022/09/17 03:10:29;;;;;;;9.27;1.65;;;;;;;11.78;81.96;101219.72;6235709;23;20011;-76
2022/09/17 03:12:54;;;;;;;5.20;1.27;;;;;;;11.26;83.54;101224.91;6211303;23;20008;-76
2022/09/17 03:15:20;;;;;;;6.75;1.30;;;;;;;11.45;83.96;101218.41;6210301;23;20059;-75
2022/09/17 03:17:45;;;;;;;5.25;1.42;;;;;;;11.59;83.14;101212.22;6209617;23;20397;-76
2022/09/17 03:20:11;;;;;;;7.85;1.90;;;;;;;11.51;84.64;101205.69;6236932;23;20090;-77
2022/09/17 03:22:36;;;;;;;10.85;2.38;;;;;;;11.34;85.05;101192.19;6236601;23;20008;-76
2022/09/17 03:25:01;;;;;;;10.77;1.63;;;;;;;11.62;83.41;101177.81;6238109;23;20015;-76
2022/09/17 03:27:27;;;;;;;9.20;3.13;;;;;;;11.80;82.60;101178.91;6210127;23;20061;-76
2022/09/17 03:29:52;;;;;;;9.48;1.70;;;;;;;11.85;82.00;101183.38;6235894;23;20000;-76
2022/09/17 03:32:17;;;;;;;7.57;2.03;;;;;;;11.83;81.74;101180.13;6209533;23;20039;-76
2022/09/17 03:34:43;;;;;;;6.47;1.70;;;;;;;11.73;82.41;101180.78;6210467;23;20012;-76
2022/09/17 03:37:08;;;;;;;7.35;2.17;;;;;;;11.74;82.19;101169.19;6211596;23;20016;-77
2022/09/17 03:39:34;;;;;;;6.53;2.53;;;;;;;11.92;81.29;101174.28;6211661;23;20463;-77
2022/09/17 03:41:59;;;;;;;8.52;1.65;;;;;;;11.54;83.16;101174.09;6209524;23;20009;-76
2022/09/17 03:44:25;;;;;;;9.82;1.55;;;;;;;11.86;81.66;101186.97;6211003;23;20624;-76
2022/09/17 03:46:50;;;;;;;7.35;1.65;;;;;;;11.84;81.66;101184.53;6236231;23;20372;-77
2022/09/17 03:49:15;;;;;;;9.25;1.45;;;;;;;11.91;80.94;101190.28;6210786;23;20091;-76
2022/09/17 03:51:41;;;;;;;8.68;1.77;;;;;;;11.96;80.80;101203.19;6236948;23;20008;-76
2022/09/17 03:54:06;;;;;;;4.97;1.30;;;;;;;11.91;81.39;101200.69;6237776;23;20011;-76
2022/09/17 03:56:32;;;;;;;8.02;1.30;;;;;;;11.94;81.60;101216.78;6212720;23;20090;-76
2022/09/17 03:58:59;;;;;;;7.95;2.35;;;;;;;11.62;82.60;101216.28;6238590;23;20141;-78
2022/09/17 04:01:25;;;;;;;3.72;1.00;;;;;;;11.60;82.13;101203.44;6238205;23;20065;-76
2022/09/17 04:03:51;;;;;;;6.53;1.30;;;;;;;11.57;82.65;101225.78;6213321;23;20375;-76
2022/09/17 04:06:16;;;;;;;8.30;1.40;;;;;;;11.58;82.73;101216.22;6213546;23;20012;-76
2022/09/17 04:08:42;;;;;;;9.10;1.42;;;;;;;11.76;82.16;101210.88;6214061;23;19997;-76
2022/09/17 04:11:11;;;;;;;4.15;1.33;;;;;;;11.72;82.51;101204.38;6213563;23;20034;-77
2022/09/17 04:13:36;;;;;;;8.85;1.52;;;;;;;11.72;82.17;101210.00;6212984;23;20008;-76
2022/09/17 04:16:02;;;;;;;6.72;1.55;;;;;;;11.84;81.61;101211.78;6211275;23;20000;-76
2022/09/17 04:18:27;;;;;;;4.28;1.25;;;;;;;11.72;81.61;101201.59;6239484;23;20335;-76
2022/09/17 04:20:52;;;;;;;7.75;1.30;;;;;;;11.74;81.38;101204.81;6239132;23;20016;-76
2022/09/17 04:23:18;;;;;;;9.85;1.48;;;;;;;11.60;82.32;101209.03;6238020;23;20010;-76
2022/09/17 04:25:43;;;;;;;8.73;1.85;;;;;;;11.82;81.16;101214.97;6235968;23;20016;-76
2022/09/17 04:28:09;;;;;;;9.20;1.60;;;;;;;11.87;80.84;101209.03;6238591;23;20007;-76
2022/09/17 04:30:35;;;;;;;11.50;2.60;;;;;;;11.68;81.44;101214.75;6236147;23;20039;-76
2022/09/17 04:33:00;;;;;;;12.38;1.98;;;;;;;11.77;80.91;101206.88;6233144;23;20000;-77
2022/09/17 04:35:25;;;;;;;7.82;1.48;;;;;;;11.85;80.47;101214.22;6236001;23;20016;-77
2022/09/17 04:37:56;;;;;;;11.48;2.55;;;;;;;11.81;80.89;101202.13;6238363;23;20022;-77
2022/09/17 04:40:22;;;;;;;6.82;1.55;;;;;;;11.79;80.88;101212.94;6234444;23;20012;-77
2022/09/17 04:42:48;;;;;;;10.90;2.17;;;;;;;11.86;80.74;101207.41;6234426;23;20087;-76
2022/09/17 04:45:13;;;;;;;6.97;1.70;;;;;;;11.84;79.92;101206.97;6209405;23;20072;-77
2022/09/17 04:47:39;;;;;;;10.52;2.25;;;;;;;11.55;80.94;101208.53;6237850;23;20012;-77
2022/09/17 04:50:05;;;;;;;8.57;1.67;;;;;;;11.67;81.02;101208.34;6207241;23;20016;-77
2022/09/17 04:52:31;;;;;;;9.30;2.78;;;;;;;11.60;80.59;101211.03;6195276;23;20023;-77
2022/09/17 04:54:56;;;;;;;17.02;1.77;;;;;;;11.65;79.84;101209.91;6180473;23;20388;-76
2022/09/17 04:57:24;;;;;;;12.02;2.33;;;;;;;11.59;80.59;101224.25;6207012;23;20437;-76
2022/09/17 04:59:50;;;;;;;9.43;2.65;;;;;;;11.53;80.35;101231.38;6181232;23;20013;-76
2022/09/17 05:02:15;;;;;;;7.57;2.10;;;;;;;11.41;81.37;101228.75;6207019;23;20438;-76
2022/09/17 05:04:40;;;;;;;9.05;1.83;;;;;;;11.45;81.10;101235.22;6180474;23;20099;-76
2022/09/17 05:07:06;;;;;;;10.02;1.90;;;;;;;11.63;80.46;101234.69;6207714;23;20352;-76
2022/09/17 05:09:31;;;;;;;9.95;2.00;;;;;;;11.36;81.14;101226.25;6205719;23;20008;-76
2022/09/17 05:11:56;;;;;;;8.00;1.65;;;;;;;11.43;81.15;101237.59;6206223;23;20028;-76
2022/09/17 05:14:22;;;;;;;10.40;1.67;;;;;;;11.64;80.15;101239.13;6206254;23;20318;-77
2022/09/17 05:16:47;;;;;;;11.77;2.70;;;;;;;11.55;80.32;101240.22;6209444;23;20008;-76
2022/09/17 05:19:12;;;;;;;8.32;1.63;;;;;;;11.51;79.82;101239.34;6205554;23;20008;-76
2022/09/17 05:21:38;;;;;;;10.32;1.83;;;;;;;11.38;80.33;101232.28;6208147;23;20016;-77
2022/09/17 05:24:03;;;;;;;6.00;1.65;;;;;;;11.41;80.13;101234.38;6178054;23;20087;-76
2022/09/17 05:26:29;;;;;;;8.00;2.08;;;;;;;11.11;81.71;101240.66;6206967;23;20019;-76
2022/09/17 05:28:54;;;;;;;10.85;2.65;;;;;;;11.36;80.85;101237.47;6181663;23;20078;-76
2022/09/17 05:31:19;;;;;;;9.35;1.65;;;;;;;11.06;82.66;101240.16;6207240;23;20437;-76
2022/09/17 05:33:45;;;;;;;8.15;1.70;;;;;;;11.35;80.75;101241.47;6208023;23;20264;-76
2022/09/17 05:36:10;;;;;;;10.07;2.25;;;;;;;11.44;80.58;101246.81;6179185;23;20100;-77
2022/09/17 05:38:35;;;;;;;14.93;3.67;;;;;;;11.48;80.68;101251.28;6207820;23;20386;-76
2022/09/17 05:41:05;;;;;;;7.00;1.45;;;;;;;11.50;80.38;101260.13;6208412;23;20336;-76
2022/09/17 05:43:31;;;;;;;8.05;1.90;;;;;;;11.56;79.27;101257.84;6208805;23;20492;-76
2022/09/17 05:46:00;;;;;;;4.57;1.40;;;;;;;11.54;79.63;101251.78;6182667;23;20017;-77
2022/09/17 05:48:26;;;;;;;7.38;1.60;;;;;;;11.47;79.18;101258.09;6206399;23;20166;-76
2022/09/17 05:50:54;;;;;;;6.95;1.65;;;;;;;11.31;80.81;101258.22;6206017;23;20017;-76
2022/09/17 05:53:19;;;;;;;7.95;1.67;;;;;;;11.43;79.84;101248.81;6227766;22;20511;-77
2022/09/17 05:55:44;;;;;;;7.32;1.60;;;;;;;11.47;80.04;101251.66;6207921;23;20062;-77
2022/09/17 05:58:15;;;;;;;6.45;1.50;;;;;;;11.55;79.34;101244.97;6234667;23;20008;-76
2022/09/17 06:00:41;;;;;;;6.38;1.50;;;;;;;11.49;79.45;101258.53;6228706;23;20201;-76
2022/09/17 06:03:09;;;;;;;7.47;1.50;;;;;;;11.50;79.92;101260.13;6231223;23;20070;-75
2022/09/17 06:05:34;;;;;;;10.60;1.65;;;;;;;11.38;80.50;101252.75;6231731;23;20020;-76
2022/09/17 06:08:00;;;;;;;9.50;1.52;;;;;;;11.49;79.78;101260.50;6235919;23;20008;-76
2022/09/17 06:10:25;;;;;;;10.02;1.85;;;;;;;11.49;79.85;101264.13;6206972;23;20610;-76
2022/09/17 06:12:55;;;;;;;7.25;1.10;;;;;;;11.48;80.51;101268.09;6210185;23;20111;-76
2022/09/17 06:15:20;;;;;;;7.30;1.58;;;;;;;11.43;81.02;101262.81;6235769;23;20129;-76
2022/09/17 06:17:46;;;;;;;10.57;1.42;;;;;;;11.42;81.12;101264.00;6209157;23;20020;-76
2022/09/17 06:20:11;;;;;;;10.93;1.90;;;;;;;11.46;80.69;101278.88;6236425;23;20004;-76
2022/09/17 06:22:36;;;;;;;4.03;1.15;;;;;;;11.55;80.49;101282.25;6233975;23;20444;-76
2022/09/17 06:25:02;;;;;;;8.82;1.58;;;;;;;11.46;80.78;101287.28;6208548;23;20031;-77
2022/09/17 06:27:32;;;;;;;4.82;1.00;;;;;;;11.54;80.58;101288.25;6240987;23;20318;-76
2022/09/17 06:29:57;;;;;;;11.10;2.38;;;;;;;11.50;80.94;101292.97;6214024;23;20003;-75
2022/09/17 06:32:23;;;;;;;8.10;1.55;;;;;;;11.56;80.66;101286.66;6208269;23;20008;-76
2022/09/17 06:34:48;;;;;;;13.15;1.75;;;;;;;11.56;81.31;101289.47;6211354;23;20008;-76
2022/09/17 06:37:14;;;;;;;3.78;1.15;;;;;;;11.46;82.13;101295.72;6209765;23;20015;-76
2022/09/17 06:39:39;;;;;;;4.63;1.20;;;;;;;11.53;81.66;101290.25;6238037;23;20015;-77
2022/09/17 06:42:05;;;;;;;6.07;1.30;;;;;;;11.55;81.70;101285.06;6210854;23;20012;-76
2022/09/17 06:44:30;;;;;;;8.63;1.33;;;;;;;11.66;81.33;101290.84;6208440;23;20000;-76
2022/09/17 06:46:55;;;;;;;10.55;1.75;;;;;;;11.69;82.23;101286.47;6238315;23;20012;-76
2022/09/17 06:49:21;;;;;;;8.38;2.35;;;;;;;11.74;81.71;101281.38;6237188;23;20094;-76
2022/09/17 06:51:46;;;;;;;8.10;1.45;;;;;;;11.80;81.61;101295.88;6210036;22;20039;-76
2022/09/17 06:54:11;;;;;;;7.53;1.42;;;;;;;11.92;81.66;101292.09;6236997;23;20044;-75
2022/09/17 06:56:37;;;;;;;3.42;1.10;;;;;;;11.96;80.09;101276.91;6208969;23;20043;-76
2022/09/17 06:59:02;;;;;;;8.20;1.58;;;;;;;11.87;80.92;101279.16;6238265;23;20008;-77
2022/09/17 07:01:28;;;;;;;8.70;1.30;;;;;;;11.79;81.17;101281.03;6213150;23;20070;-76
2022/09/17 07:03:56;;;;;;;6.05;1.30;;;;;;;11.85;81.09;101287.16;6205566;23;20024;-76
2022/09/17 07:06:22;;;;;;;7.32;1.35;;;;;;;11.96;81.32;101282.53;6209891;23;20066;-77
2022/09/17 07:08:47;;;;;;;6.82;1.30;;;;;;;11.93;80.97;101294.53;6242361;23;20004;-75
2022/09/17 07:11:14;;;;;;;10.20;1.25;;;;;;;11.91;80.84;101288.47;6216130;23;20078;-76
2022/09/17 07:13:40;;;;;;;7.38;1.10;;;;;;;11.92;80.40;101298.50;6214287;23;20015;-75
2022/09/17 07:16:06;;;;;;;6.65;0.93;;;;;;;11.96;81.06;101310.59;6242436;23;20004;-76
2022/09/17 07:18:32;;;;;;;7.97;1.27;;;;;;;11.94;81.54;101296.13;6216391;23;20004;-76
2022/09/17 07:20:59;;;;;;;5.40;1.20;;;;;;;12.02;79.72;101285.84;6238339;23;20431;-76
2022/09/17 07:23:30;;;;;;;7.38;1.30;;;;;;;12.13;79.52;101280.38;6242828;23;20053;-76
2022/09/17 07:25:57;;;;;;;7.13;1.40;;;;;;;11.96;79.71;101276.91;6216327;23;20091;-76
2022/09/17 07:28:23;;;;;;;6.40;1.23;;;;;;;12.05;78.62;101285.06;6213746;23;20098;-76
2022/09/17 07:30:50;;;;;;;9.70;2.35;;;;;;;12.09;78.91;101296.34;6241491;23;20102;-76
2022/09/17 07:33:17;;;;;;;6.20;1.00;;;;;;;12.06;78.60;101285.88;6243153;23;20015;-76
2022/09/17 07:35:54;;;;;;;3.60;1.08;;;;;;;12.24;78.20;101298.16;6241412;23;20424;-76
2022/09/17 07:38:20;;;;;;;6.18;0.95;;;;;;;12.31;77.93;101295.47;6215824;23;20104;-76
2022/09/17 07:40:56;;;;;;;15.13;3.53;;;;;;;12.25;80.50;101299.78;6216633;23;20352;-76
2022/09/17 07:43:22;;;;;;;7.13;1.20;;;;;;;12.12;82.17;101304.00;6210790;23;20504;-76
2022/09/17 07:45:48;;;;;;;8.73;1.58;;;;;;;11.99;81.19;101304.25;6236179;23;20504;-76
2022/09/17 07:48:13;;;;;;;8.90;1.10;;;;;;;12.02;81.82;101308.28;6233677;23;20019;-76
2022/09/17 07:50:38;;;;;;;4.15;1.13;;;;;;;11.94;81.37;101303.75;6238314;23;20155;-77
2022/09/17 07:53:04;;;;;;;5.15;0.85;;;;;;;11.98;80.76;101307.41;6241910;23;20020;-76
2022/09/17 07:55:29;;;;;;;7.93;1.65;;;;;;;12.03;80.78;101325.91;6242035;23;20087;-75
2022/09/17 07:57:54;;;;;;;5.53;1.13;;;;;;;12.06;80.22;101319.53;6241718;23;20040;-77
2022/09/17 08:00:24;;;;;;;2.70;1.00;;;;;;;12.22;81.11;101311.75;6242127;23;20007;-75
2022/09/17 08:02:54;;;;;;;4.28;1.10;;;;;;;12.25;81.97;101310.19;6214744;23;20630;-76
2022/09/17 08:05:19;;;;;;;7.22;1.35;;;;;;;12.26;79.83;101312.63;6215292;23;20506;-77
2022/09/17 08:07:52;;;;;;;9.38;1.20;;;;;;;12.29;79.73;101309.06;6243241;23;20031;-76
2022/09/17 08:10:21;;;;;;;5.97;1.52;;;;;;;12.38;79.00;101309.59;6214823;23;20495;-76
2022/09/17 08:12:54;;;;;;;7.90;0.90;;;;;;;12.45;77.98;101322.91;6214379;23;20023;-77
2022/09/17 08:15:20;;;;;;;9.30;2.03;;;;;;;12.61;78.10;101328.34;6242277;23;20057;-77
2022/09/17 08:17:46;;;;;;;7.10;1.23;;;;;;;12.63;78.30;101327.97;6243266;23;20337;-76
2022/09/17 08:20:13;;;;;;;6.45;1.33;;;;;;;12.37;81.75;101321.19;6240919;23;20012;-75
2022/09/17 08:22:39;;;;;;;9.90;1.83;;;;;;;12.10;82.83;101314.78;6241319;23;19996;-76
2022/09/17 08:25:05;;;;;;;3.08;0.80;;;;;;;11.87;83.95;101317.59;6240738;23;20743;-76
2022/09/17 08:27:31;;;;;;;4.63;0.70;;;;;;;11.85;83.97;101308.75;6238686;23;20096;-77
2022/09/17 08:29:56;;;;;;;3.88;1.13;;;;;;;11.82;84.31;101304.72;6213488;23;20546;-78
2022/09/17 08:32:22;;;;;;;1.10;0.50;;;;;;;11.89;83.68;101310.47;6241191;23;20015;-76
2022/09/17 08:34:48;;;;;;;2.97;0.70;;;;;;;11.85;83.93;101318.00;6240766;23;20138;-76
2022/09/17 08:37:13;;;;;;;2.92;0.80;;;;;;;11.88;83.50;101320.06;6240843;23;20064;-77
2022/09/17 08:39:38;;;;;;;0.70;0.60;;;;;;;11.69;85.90;101312.53;6210652;23;20016;-77
2022/09/17 08:42:24;;;;;;;4.63;0.70;;;;;;;11.83;84.95;101323.19;6236736;23;20083;-77
2022/09/17 08:44:52;;;;;;;1.80;0.80;;;;;;;12.20;82.98;101325.38;6240000;23;20016;-76
2022/09/17 08:47:25;;;;;;;3.45;0.80;;;;;;;12.05;83.42;101329.94;6240530;23;20030;-77
2022/09/17 08:49:59;;;;;;;1.85;0.85;;;;;;;12.28;82.27;101327.09;6240865;23;20015;-77
2022/09/17 08:52:43;;;;;;;5.95;1.10;;;;;;;12.31;83.74;101336.75;6221539;23;20016;-77
2022/09/17 08:55:28;;;;;;;6.22;0.88;;;;;;;12.55;83.74;101330.69;6240438;23;20482;-77
2022/09/17 08:58:05;;;;;;;9.15;1.48;;;;;;;12.52;81.52;101330.63;6238585;22;20016;-78
2022/09/17 09:00:44;;;;;;;4.55;0.65;;;;;;;12.54;80.55;101328.25;6240829;23;20050;-78
2022/09/17 09:03:45;;;;;;;4.68;0.93;;;;;;;12.58;81.61;101341.13;6239321;22;20432;-78
2022/09/17 09:06:14;;;;;;;5.22;1.13;;;;;;;12.49;81.52;101349.06;6226875;23;20026;-78
2022/09/17 09:08:42;;;;;;;4.80;1.90;;;;;;;12.45;81.89;101348.19;6240315;23;20058;-78
2022/09/17 09:11:18;;;;;;;4.47;1.23;;;;;;;12.22;80.08;101353.88;6241301;23;20012;-78
2022/09/17 09:13:49;;;;;;;3.80;0.70;;;;;;;12.03;80.80;101349.16;6242391;23;20016;-79
2022/09/17 09:16:19;;;;;;;2.00;0.70;;;;;;;11.98;80.57;101329.84;6243400;23;20130;-78
2022/09/17 09:18:49;;;;;;;3.53;0.73;;;;;;;11.98;81.44;101341.88;6239599;22;20066;-78
2022/09/17 09:21:31;;;;;;;2.88;0.60;;;;;;;12.19;83.12;101338.59;6238635;22;20008;-78
2022/09/17 09:24:14;;;;;;;3.90;0.88;;;;;;;12.30;83.89;101352.78;6241932;22;20329;-78
2022/09/17 09:26:44;;;;;;;6.15;0.90;;;;;;;12.36;83.94;101351.28;6242021;22;20079;-78
2022/09/17 09:29:20;;;;;;;2.55;0.95;;;;;;;12.52;85.24;101348.31;6240961;22;20387;-78
2022/09/17 09:32:17;;;;;;;6.20;0.95;;;;;;;12.50;82.76;101363.88;6238976;23;20012;-78
2022/09/17 09:34:44;;;;;;;4.50;1.30;;;;;;;12.34;82.35;101359.25;6241014;23;20012;-78
2022/09/17 09:37:30;;;;;;;6.00;1.05;;;;;;;12.15;83.29;101368.59;6237999;23;20330;-79
2022/09/17 09:40:22;;;;;;;10.27;1.85;;;;;;;12.24;84.09;101356.31;6239190;23;20432;-78
2022/09/17 09:42:52;;;;;;;5.15;0.93;;;;;;;12.38;83.96;101348.91;6239966;22;20483;-78
2022/09/17 09:45:33;;;;;;;5.35;1.27;;;;;;;12.37;83.52;101352.88;6239141;23;20405;-78
2022/09/17 09:48:39;;;;;;;4.93;1.13;;;;;;;12.38;85.74;101342.47;6243178;22;20007;-78
2022/09/17 09:51:37;;;;;;;7.72;1.40;;;;;;;12.37;83.91;101338.84;6217447;23;20011;-79
2022/09/17 09:54:11;;;;;;;2.17;0.95;;;;;;;12.54;82.97;101342.28;6240230;23;20333;-79
2022/09/17 09:57:04;;;;;;;10.77;1.40;;;;;;;12.54;83.76;101325.44;6241768;23;20008;-78
2022/09/17 09:59:29;;;;;;;5.63;1.07;;;;;;;12.64;82.78;101324.78;6241459;22;20000;-79
2022/09/17 10:01:54;;;;;;;4.15;1.05;;;;;;;12.76;82.40;101335.78;6241839;23;20008;-78
2022/09/17 10:04:25;;;;;;;7.75;1.73;;;;;;;12.91;81.51;101336.75;6244238;22;20091;-78
2022/09/17 10:07:03;;;;;;;7.78;1.17;;;;;;;12.84;83.84;101327.41;6241244;23;20095;-78
2022/09/17 10:09:31;;;;;;;9.00;1.08;;;;;;;12.69;84.04;101324.47;6240504;22;20486;-79
2022/09/17 10:12:03;;;;;;;9.15;1.05;;;;;;;12.73;84.16;101328.13;6240816;22;20010;-77
2022/09/17 10:14:36;;;;;;;8.43;1.52;;;;;;;12.68;84.02;101334.06;6240561;23;20003;-76
2022/09/17 10:17:16;;;;;;;8.43;1.23;;;;;;;12.87;83.49;101323.88;6241892;23;20015;-77
2022/09/17 10:19:43;;;;;;;4.90;1.13;;;;;;;12.80;84.75;101336.63;6241702;23;20011;-77
2022/09/17 10:22:20;;;;;;;4.90;0.80;;;;;;;12.84;84.07;101336.69;6242522;22;20008;-77
2022/09/17 10:24:46;;;;;;;6.88;1.75;;;;;;;12.92;84.41;101343.19;6242743;23;20050;-77
2022/09/17 10:27:18;;;;;;;5.75;1.08;;;;;;;12.93;84.03;101342.00;6241860;22;20012;-77
2022/09/17 10:29:45;;;;;;;6.57;1.00;;;;;;;12.87;84.51;101346.34;6242595;22;19997;-77
2022/09/17 10:32:15;;;;;;;8.25;1.60;;;;;;;12.61;84.26;101339.59;6242439;22;20083;-77
2022/09/17 10:34:55;;;;;;;6.90;1.70;;;;;;;12.68;85.04;101330.44;6242126;22;20008;-77
2022/09/17 10:37:41;;;;;;;6.22;2.25;;;;;;;12.76;83.48;101318.13;6242446;22;20012;-76
2022/09/17 10:40:19;;;;;;;5.72;1.13;;;;;;;12.70;84.10;101325.25;6239129;23;20019;-76
2022/09/17 10:42:45;;;;;;;3.95;1.23;;;;;;;12.74;84.06;101323.31;6241837;23;20008;-77
2022/09/17 10:45:26;;;;;;;6.32;1.63;;;;;;;12.84;83.53;101327.41;6239787;22;20573;-77
2022/09/17 10:47:53;;;;;;;9.23;1.70;;;;;;;12.88;82.99;101314.22;6241209;22;20012;-77
2022/09/17 10:50:30;;;;;;;6.93;1.67;;;;;;;12.96;83.44;101321.56;6241474;22;20004;-77
2022/09/17 10:53:00;;;;;;;4.30;1.63;;;;;;;13.02;83.29;101303.97;6235640;22;20095;-76
2022/09/17 10:55:30;;;;;;;4.28;1.25;;;;;;;13.09;82.81;101314.50;6238130;23;20008;-77
2022/09/17 10:58:14;;;;;;;9.43;1.65;;;;;;;13.25;80.03;101305.00;6211016;23;20360;-77
2022/09/17 11:00:48;;;;;;;12.02;2.95;;;;;;;13.39;79.32;101302.38;6237685;23;20094;-76
2022/09/17 11:03:19;;;;;;;7.13;1.38;;;;;;;13.50;79.65;101294.84;6239563;23;20043;-77
2022/09/17 11:06:22;;;;;;;9.18;1.65;;;;;;;13.55;77.40;101285.22;6239827;23;20409;-77
2022/09/17 11:08:48;;;;;;;3.78;1.27;;;;;;;13.67;78.43;101286.94;6211768;23;20019;-77
2022/09/17 11:11:45;;;;;;;7.32;1.65;;;;;;;13.79;77.60;101287.44;6241883;23;20008;-78
2022/09/17 11:14:46;;;;;;;3.42;1.20;;;;;;;14.00;76.16;101283.97;6240133;23;20004;-76
2022/09/17 11:17:24;;;;;;;3.50;1.10;;;;;;;14.09;74.04;101292.09;6212826;23;20016;-76
2022/09/17 11:20:16;;;;;;;6.60;1.05;;;;;;;13.99;75.74;101299.25;6238754;23;20004;-76
2022/09/17 11:22:51;;;;;;;3.08;0.80;;;;;;;14.26;75.43;101307.47;6209325;23;20015;-76
2022/09/17 11:25:44;;;;;;;7.07;1.20;;;;;;;14.35;73.76;101293.84;6235837;23;20087;-75
2022/09/17 11:28:50;;;;;;;4.05;1.08;;;;;;;14.19;75.97;101296.19;6236687;23;20035;-74
2022/09/17 11:31:23;;;;;;;5.97;0.98;;;;;;;14.09;77.10;101320.22;6188209;23;20012;-76
2022/09/17 11:34:42;;;;;;;6.20;1.25;;;;;;;14.21;76.82;101299.41;6239145;23;20106;-75
2022/09/17 11:37:20;;;;;;;4.72;1.00;;;;;;;14.30;76.61;101297.03;6144746;23;20036;-75
2022/09/17 11:39:54;;;;;;;9.93;2.47;;;;;;;14.26;77.13;101313.09;6118819;23;20005;-76
2022/09/17 11:42:30;;;;;;;6.68;1.00;;;;;;;14.22;76.04;101313.06;6201409;23;20411;-82